sensor_id;sensor_type;location;lat;lon;timestamp;P1;durP1;ratioP1;P2;durP2;ratioP2
44750;SDS011;30477;48.224;11.470;2024-03-23T00:54:59;7.33;;;3.93;;
44750;SDS011;30477;48.224;11.470;2024-03-23T00:57:24;6.20;;;3.60;;
44750;SDS011;30477;48.224;11.470;2024-03-23T00:59:50;5.97;;;3.70;;
44750;SDS011;30477;48.224;11.470;2024-03-23T01:02:15;10.53;;;4.10;;
44750;SDS011;30477;48.224;11.470;2024-03-23T01:04:40;6.43;;;3.77;;
44750;SDS011;30477;48.224;11.470;2024-03-23T01:07:06;5.67;;;3.70;;
44750;SDS011;30477;48.224;11.470;2024-03-23T01:09:31;7.30;;;3.50;;
44750;SDS011;30477;48.224;11.470;2024-03-23T01:11:56;5.20;;;3.33;;
44750;SDS011;30477;48.224;11.470;2024-03-23T01:14:21;4.77;;;3.50;;
44750;SDS011;30477;48.224;11.470;2024-03-23T01:16:47;6.63;;;3.53;;
44750;SDS011;30477;48.224;11.470;2024-03-23T01:19:12;5.30;;;3.93;;
44750;SDS011;30477;48.224;11.470;2024-03-23T01:21:38;4.20;;;3.43;;
44750;SDS011;30477;48.224;11.470;2024-03-23T01:24:03;4.23;;;3.20;;
44750;SDS011;30477;48.224;11.470;2024-03-23T01:26:28;4.13;;;3.47;;
44750;SDS011;30477;48.224;11.470;2024-03-23T01:28:54;4.10;;;3.20;;
44750;SDS011;30477;48.224;11.470;2024-03-23T01:31:19;3.23;;;2.93;;
44750;SDS011;30477;48.224;11.470;2024-03-23T01:33:44;6.43;;;3.03;;
44750;SDS011;30477;48.224;11.470;2024-03-23T01:36:10;6.33;;;3.40;;
44750;SDS011;30477;48.224;11.470;2024-03-23T01:38:35;6.13;;;3.40;;
44750;SDS011;30477;48.224;11.470;2024-03-23T01:41:01;4.93;;;3.40;;
44750;SDS011;30477;48.224;11.470;2024-03-23T01:43:26;5.10;;;3.27;;
44750;SDS011;30477;48.224;11.470;2024-03-23T01:45:51;5.33;;;3.47;;
44750;SDS011;30477;48.224;11.470;2024-03-23T01:48:18;7.20;;;3.47;;
44750;SDS011;30477;48.224;11.470;2024-03-23T01:50:45;4.35;;;3.22;;
44750;SDS011;30477;48.224;11.470;2024-03-23T01:53:11;3.53;;;2.97;;
44750;SDS011;30477;48.224;11.470;2024-03-23T01:55:36;5.03;;;2.90;;
44750;SDS011;30477;48.224;11.470;2024-03-23T01:58:04;7.45;;;2.83;;
44750;SDS011;30477;48.224;11.470;2024-03-23T02:00:29;3.87;;;3.23;;
44750;SDS011;30477;48.224;11.470;2024-03-23T02:02:54;5.20;;;2.73;;
44750;SDS011;30477;48.224;11.470;2024-03-23T02:05:20;5.35;;;2.92;;
44750;SDS011;30477;48.224;11.470;2024-03-23T02:07:46;3.83;;;2.63;;
44750;SDS011;30477;48.224;11.470;2024-03-23T02:10:11;4.63;;;3.03;;
44750;SDS011;30477;48.224;11.470;2024-03-23T02:12:40;3.63;;;2.67;;
44750;SDS011;30477;48.224;11.470;2024-03-23T02:15:05;3.97;;;2.83;;
44750;SDS011;30477;48.224;11.470;2024-03-23T02:17:32;4.00;;;2.95;;
44750;SDS011;30477;48.224;11.470;2024-03-23T02:19:59;6.53;;;2.95;;
44750;SDS011;30477;48.224;11.470;2024-03-23T02:22:25;4.15;;;2.85;;
44750;SDS011;30477;48.224;11.470;2024-03-23T02:24:58;8.52;;;3.35;;
44750;SDS011;30477;48.224;11.470;2024-03-23T02:27:24;4.70;;;2.83;;
44750;SDS011;30477;48.224;11.470;2024-03-23T02:29:49;3.93;;;2.87;;
44750;SDS011;30477;48.224;11.470;2024-03-23T02:32:15;5.60;;;2.87;;
44750;SDS011;30477;48.224;11.470;2024-03-23T02:34:40;5.63;;;2.97;;
44750;SDS011;30477;48.224;11.470;2024-03-23T02:37:10;4.17;;;3.20;;
44750;SDS011;30477;48.224;11.470;2024-03-23T02:39:36;3.63;;;2.75;;
44750;SDS011;30477;48.224;11.470;2024-03-23T02:42:01;4.43;;;2.80;;
44750;SDS011;30477;48.224;11.470;2024-03-23T02:44:27;3.53;;;2.90;;
44750;SDS011;30477;48.224;11.470;2024-03-23T02:46:52;5.77;;;2.73;;
44750;SDS011;30477;48.224;11.470;2024-03-23T02:49:17;5.43;;;2.70;;
44750;SDS011;30477;48.224;11.470;2024-03-23T02:51:42;4.67;;;2.93;;
44750;SDS011;30477;48.224;11.470;2024-03-23T02:54:10;4.80;;;3.05;;
44750;SDS011;30477;48.224;11.470;2024-03-23T02:56:35;4.63;;;3.13;;
44750;SDS011;30477;48.224;11.470;2024-03-23T02:59:01;4.23;;;2.80;;
44750;SDS011;30477;48.224;11.470;2024-03-23T03:01:26;3.20;;;2.87;;
44750;SDS011;30477;48.224;11.470;2024-03-23T03:03:51;4.00;;;3.13;;
44750;SDS011;30477;48.224;11.470;2024-03-23T03:06:24;4.30;;;2.83;;
44750;SDS011;30477;48.224;11.470;2024-03-23T03:08:49;3.03;;;2.70;;
44750;SDS011;30477;48.224;11.470;2024-03-23T03:11:15;4.83;;;3.10;;
44750;SDS011;30477;48.224;11.470;2024-03-23T03:13:40;5.53;;;2.80;;
44750;SDS011;30477;48.224;11.470;2024-03-23T03:16:08;3.80;;;3.00;;
44750;SDS011;30477;48.224;11.470;2024-03-23T03:18:34;4.90;;;2.85;;
44750;SDS011;30477;48.224;11.470;2024-03-23T03:21:00;4.10;;;2.97;;
44750;SDS011;30477;48.224;11.470;2024-03-23T03:23:25;6.03;;;3.20;;
44750;SDS011;30477;48.224;11.470;2024-03-23T03:25:51;5.23;;;3.20;;
44750;SDS011;30477;48.224;11.470;2024-03-23T03:30:42;5.13;;;3.00;;
44750;SDS011;30477;48.224;11.470;2024-03-23T03:33:07;3.03;;;2.73;;
44750;SDS011;30477;48.224;11.470;2024-03-23T03:35:33;6.07;;;2.90;;
44750;SDS011;30477;48.224;11.470;2024-03-23T03:37:58;5.83;;;2.80;;
44750;SDS011;30477;48.224;11.470;2024-03-23T03:40:24;3.13;;;2.60;;
44750;SDS011;30477;48.224;11.470;2024-03-23T03:42:50;3.95;;;3.10;;
44750;SDS011;30477;48.224;11.470;2024-03-23T03:45:15;5.23;;;3.03;;
44750;SDS011;30477;48.224;11.470;2024-03-23T03:47:40;4.87;;;2.93;;
44750;SDS011;30477;48.224;11.470;2024-03-23T03:50:06;5.43;;;2.83;;
44750;SDS011;30477;48.224;11.470;2024-03-23T03:52:31;6.57;;;3.17;;
44750;SDS011;30477;48.224;11.470;2024-03-23T03:55:01;5.10;;;3.07;;
44750;SDS011;30477;48.224;11.470;2024-03-23T03:57:27;4.57;;;3.20;;
44750;SDS011;30477;48.224;11.470;2024-03-23T03:59:53;3.13;;;2.78;;
44750;SDS011;30477;48.224;11.470;2024-03-23T04:02:18;3.97;;;2.70;;
44750;SDS011;30477;48.224;11.470;2024-03-23T04:04:43;3.13;;;2.83;;
44750;SDS011;30477;48.224;11.470;2024-03-23T04:07:09;4.83;;;3.07;;
44750;SDS011;30477;48.224;11.470;2024-03-23T04:09:34;4.17;;;3.20;;
44750;SDS011;30477;48.224;11.470;2024-03-23T04:12:00;4.35;;;2.83;;
44750;SDS011;30477;48.224;11.470;2024-03-23T04:14:25;4.97;;;2.60;;
44750;SDS011;30477;48.224;11.470;2024-03-23T04:16:52;4.07;;;3.30;;
44750;SDS011;30477;48.224;11.470;2024-03-23T04:19:17;4.57;;;3.80;;
44750;SDS011;30477;48.224;11.470;2024-03-23T04:21:42;5.20;;;3.57;;
44750;SDS011;30477;48.224;11.470;2024-03-23T04:24:07;5.37;;;2.63;;
44750;SDS011;30477;48.224;11.470;2024-03-23T04:26:42;5.23;;;2.93;;
44750;SDS011;30477;48.224;11.470;2024-03-23T04:29:08;4.03;;;2.60;;
44750;SDS011;30477;48.224;11.470;2024-03-23T04:31:33;4.67;;;2.33;;
44750;SDS011;30477;48.224;11.470;2024-03-23T04:34:00;3.65;;;2.13;;
44750;SDS011;30477;48.224;11.470;2024-03-23T04:36:26;3.83;;;2.47;;
44750;SDS011;30477;48.224;11.470;2024-03-23T04:38:51;3.70;;;2.33;;
44750;SDS011;30477;48.224;11.470;2024-03-23T04:41:17;2.85;;;2.58;;
44750;SDS011;30477;48.224;11.470;2024-03-23T04:43:43;7.00;;;2.80;;
44750;SDS011;30477;48.224;11.470;2024-03-23T04:46:08;4.83;;;2.60;;
44750;SDS011;30477;48.224;11.470;2024-03-23T04:48:33;4.30;;;3.30;;
44750;SDS011;30477;48.224;11.470;2024-03-23T04:50:59;12.17;;;3.60;;
44750;SDS011;30477;48.224;11.470;2024-03-23T04:53:24;5.20;;;3.03;;
44750;SDS011;30477;48.224;11.470;2024-03-23T04:55:53;6.57;;;2.70;;
44750;SDS011;30477;48.224;11.470;2024-03-23T04:58:22;3.45;;;2.70;;
44750;SDS011;30477;48.224;11.470;2024-03-23T05:00:48;3.67;;;2.67;;
44750;SDS011;30477;48.224;11.470;2024-03-23T05:03:18;5.30;;;2.60;;
44750;SDS011;30477;48.224;11.470;2024-03-23T05:05:44;4.60;;;2.58;;
44750;SDS011;30477;48.224;11.470;2024-03-23T05:08:09;3.40;;;2.63;;
44750;SDS011;30477;48.224;11.470;2024-03-23T05:10:35;5.33;;;3.00;;
44750;SDS011;30477;48.224;11.470;2024-03-23T05:13:00;3.38;;;2.55;;
44750;SDS011;30477;48.224;11.470;2024-03-23T05:15:26;5.82;;;2.80;;
44750;SDS011;30477;48.224;11.470;2024-03-23T05:17:52;4.22;;;2.55;;
44750;SDS011;30477;48.224;11.470;2024-03-23T05:20:17;6.20;;;2.73;;
44750;SDS011;30477;48.224;11.470;2024-03-23T05:25:09;4.00;;;2.90;;
44750;SDS011;30477;48.224;11.470;2024-03-23T05:27:35;6.73;;;3.43;;
44750;SDS011;30477;48.224;11.470;2024-03-23T05:32:26;4.88;;;2.63;;
44750;SDS011;30477;48.224;11.470;2024-03-23T05:34:53;3.87;;;2.90;;
44750;SDS011;30477;48.224;11.470;2024-03-23T05:37:21;3.60;;;2.65;;
44750;SDS011;30477;48.224;11.470;2024-03-23T05:39:47;5.43;;;2.55;;
44750;SDS011;30477;48.224;11.470;2024-03-23T05:42:15;5.03;;;2.78;;
44750;SDS011;30477;48.224;11.470;2024-03-23T05:44:44;5.15;;;2.53;;
44750;SDS011;30477;48.224;11.470;2024-03-23T05:47:10;4.47;;;2.40;;
44750;SDS011;30477;48.224;11.470;2024-03-23T05:49:35;5.20;;;2.63;;
44750;SDS011;30477;48.224;11.470;2024-03-23T05:52:01;3.37;;;2.60;;
44750;SDS011;30477;48.224;11.470;2024-03-23T05:54:28;3.60;;;2.50;;
44750;SDS011;30477;48.224;11.470;2024-03-23T05:56:54;3.20;;;2.30;;
44750;SDS011;30477;48.224;11.470;2024-03-23T05:59:20;5.20;;;2.30;;
44750;SDS011;30477;48.224;11.470;2024-03-23T06:01:46;3.60;;;2.20;;
44750;SDS011;30477;48.224;11.470;2024-03-23T06:06:38;4.75;;;2.28;;
44750;SDS011;30477;48.224;11.470;2024-03-23T06:09:04;3.00;;;2.10;;
44750;SDS011;30477;48.224;11.470;2024-03-23T06:11:29;4.40;;;2.00;;
44750;SDS011;30477;48.224;11.470;2024-03-23T06:13:55;2.20;;;2.00;;
44750;SDS011;30477;48.224;11.470;2024-03-23T06:16:20;7.65;;;2.42;;
44750;SDS011;30477;48.224;11.470;2024-03-23T06:18:48;4.68;;;2.15;;
44750;SDS011;30477;48.224;11.470;2024-03-23T06:21:14;3.17;;;2.22;;
44750;SDS011;30477;48.224;11.470;2024-03-23T06:23:40;5.00;;;2.10;;
44750;SDS011;30477;48.224;11.470;2024-03-23T06:26:13;4.78;;;2.60;;
44750;SDS011;30477;48.224;11.470;2024-03-23T06:28:38;2.13;;;1.75;;
44750;SDS011;30477;48.224;11.470;2024-03-23T06:31:08;3.90;;;2.23;;
44750;SDS011;30477;48.224;11.470;2024-03-23T06:33:34;3.50;;;1.92;;
44750;SDS011;30477;48.224;11.470;2024-03-23T06:35:59;4.53;;;2.07;;
44750;SDS011;30477;48.224;11.470;2024-03-23T06:38:25;2.97;;;1.97;;
44750;SDS011;30477;48.224;11.470;2024-03-23T06:40:50;4.30;;;2.50;;
44750;SDS011;30477;48.224;11.470;2024-03-23T06:43:17;3.55;;;2.00;;
44750;SDS011;30477;48.224;11.470;2024-03-23T06:45:43;4.47;;;2.20;;
44750;SDS011;30477;48.224;11.470;2024-03-23T06:48:09;3.93;;;2.30;;
44750;SDS011;30477;48.224;11.470;2024-03-23T06:50:34;3.43;;;2.10;;
44750;SDS011;30477;48.224;11.470;2024-03-23T06:52:59;3.23;;;2.33;;
44750;SDS011;30477;48.224;11.470;2024-03-23T06:55:26;4.45;;;1.88;;
44750;SDS011;30477;48.224;11.470;2024-03-23T06:57:53;3.05;;;2.22;;
44750;SDS011;30477;48.224;11.470;2024-03-23T07:00:18;3.43;;;1.90;;
44750;SDS011;30477;48.224;11.470;2024-03-23T07:02:44;3.70;;;2.17;;
44750;SDS011;30477;48.224;11.470;2024-03-23T07:05:09;2.67;;;1.92;;
44750;SDS011;30477;48.224;11.470;2024-03-23T07:07:35;3.28;;;2.35;;
44750;SDS011;30477;48.224;11.470;2024-03-23T07:10:01;4.57;;;2.58;;
44750;SDS011;30477;48.224;11.470;2024-03-23T07:12:27;3.67;;;2.40;;
44750;SDS011;30477;48.224;11.470;2024-03-23T07:14:53;4.13;;;2.53;;
44750;SDS011;30477;48.224;11.470;2024-03-23T07:17:18;2.87;;;2.40;;
44750;SDS011;30477;48.224;11.470;2024-03-23T07:19:44;3.43;;;2.47;;
44750;SDS011;30477;48.224;11.470;2024-03-23T07:22:09;4.47;;;2.60;;
44750;SDS011;30477;48.224;11.470;2024-03-23T07:24:35;5.50;;;2.63;;
44750;SDS011;30477;48.224;11.470;2024-03-23T07:27:01;7.57;;;2.75;;
44750;SDS011;30477;48.224;11.470;2024-03-23T07:29:27;5.15;;;2.65;;
44750;SDS011;30477;48.224;11.470;2024-03-23T07:31:52;4.17;;;2.93;;
44750;SDS011;30477;48.224;11.470;2024-03-23T07:34:18;6.10;;;2.97;;
44750;SDS011;30477;48.224;11.470;2024-03-23T07:36:43;9.23;;;3.77;;
44750;SDS011;30477;48.224;11.470;2024-03-23T07:39:08;5.13;;;3.37;;
44750;SDS011;30477;48.224;11.470;2024-03-23T07:41:34;5.40;;;2.97;;
44750;SDS011;30477;48.224;11.470;2024-03-23T07:44:00;5.78;;;2.90;;
44750;SDS011;30477;48.224;11.470;2024-03-23T07:46:25;5.00;;;2.67;;
44750;SDS011;30477;48.224;11.470;2024-03-23T07:48:51;5.83;;;2.80;;
44750;SDS011;30477;48.224;11.470;2024-03-23T07:51:20;9.27;;;2.65;;
44750;SDS011;30477;48.224;11.470;2024-03-23T07:53:47;3.83;;;2.83;;
44750;SDS011;30477;48.224;11.470;2024-03-23T07:56:13;4.70;;;2.90;;
44750;SDS011;30477;48.224;11.470;2024-03-23T07:58:44;3.80;;;2.75;;
44750;SDS011;30477;48.224;11.470;2024-03-23T08:01:10;5.55;;;2.97;;
44750;SDS011;30477;48.224;11.470;2024-03-23T08:03:37;4.22;;;2.70;;
44750;SDS011;30477;48.224;11.470;2024-03-23T08:08:35;5.00;;;3.25;;
44750;SDS011;30477;48.224;11.470;2024-03-23T08:11:00;4.00;;;3.00;;
44750;SDS011;30477;48.224;11.470;2024-03-23T08:13:26;3.70;;;2.43;;
44750;SDS011;30477;48.224;11.470;2024-03-23T08:15:51;5.40;;;3.10;;
44750;SDS011;30477;48.224;11.470;2024-03-23T08:18:16;6.37;;;3.37;;
44750;SDS011;30477;48.224;11.470;2024-03-23T08:20:42;5.43;;;3.20;;
44750;SDS011;30477;48.224;11.470;2024-03-23T08:23:07;6.03;;;3.20;;
44750;SDS011;30477;48.224;11.470;2024-03-23T08:25:33;3.90;;;2.70;;
44750;SDS011;30477;48.224;11.470;2024-03-23T08:27:59;3.83;;;2.60;;
44750;SDS011;30477;48.224;11.470;2024-03-23T08:30:24;3.30;;;2.43;;
44750;SDS011;30477;48.224;11.470;2024-03-23T08:32:50;3.72;;;2.40;;
44750;SDS011;30477;48.224;11.470;2024-03-23T08:35:15;4.97;;;2.47;;
44750;SDS011;30477;48.224;11.470;2024-03-23T08:37:41;4.00;;;2.33;;
44750;SDS011;30477;48.224;11.470;2024-03-23T08:40:06;3.57;;;2.53;;
44750;SDS011;30477;48.224;11.470;2024-03-23T08:42:33;3.90;;;2.42;;
44750;SDS011;30477;48.224;11.470;2024-03-23T08:44:58;3.43;;;2.20;;
44750;SDS011;30477;48.224;11.470;2024-03-23T08:47:24;4.40;;;2.50;;
44750;SDS011;30477;48.224;11.470;2024-03-23T08:49:49;4.57;;;2.43;;
44750;SDS011;30477;48.224;11.470;2024-03-23T08:52:14;5.33;;;2.80;;
44750;SDS011;30477;48.224;11.470;2024-03-23T08:54:40;3.03;;;2.47;;
44750;SDS011;30477;48.224;11.470;2024-03-23T08:57:05;4.13;;;2.40;;
44750;SDS011;30477;48.224;11.470;2024-03-23T08:59:32;3.00;;;2.40;;
44750;SDS011;30477;48.224;11.470;2024-03-23T09:01:57;4.57;;;2.43;;
44750;SDS011;30477;48.224;11.470;2024-03-23T09:04:23;4.20;;;2.77;;
44750;SDS011;30477;48.224;11.470;2024-03-23T09:06:48;4.70;;;2.60;;
44750;SDS011;30477;48.224;11.470;2024-03-23T09:09:13;3.53;;;2.90;;
44750;SDS011;30477;48.224;11.470;2024-03-23T09:11:39;3.90;;;2.63;;
44750;SDS011;30477;48.224;11.470;2024-03-23T09:14:04;4.00;;;2.97;;
44750;SDS011;30477;48.224;11.470;2024-03-23T09:16:29;3.90;;;3.07;;
44750;SDS011;30477;48.224;11.470;2024-03-23T09:18:55;3.67;;;3.03;;
44750;SDS011;30477;48.224;11.470;2024-03-23T09:21:20;4.57;;;3.60;;
44750;SDS011;30477;48.224;11.470;2024-03-23T09:23:45;7.40;;;3.30;;
44750;SDS011;30477;48.224;11.470;2024-03-23T09:26:11;5.60;;;3.08;;
44750;SDS011;30477;48.224;11.470;2024-03-23T09:28:37;3.57;;;2.90;;
44750;SDS011;30477;48.224;11.470;2024-03-23T09:31:06;3.60;;;1.90;;
44750;SDS011;30477;48.224;11.470;2024-03-23T09:33:32;3.00;;;1.92;;
44750;SDS011;30477;48.224;11.470;2024-03-23T09:35:58;2.10;;;1.80;;
44750;SDS011;30477;48.224;11.470;2024-03-23T09:38:27;3.95;;;1.70;;
44750;SDS011;30477;48.224;11.470;2024-03-23T09:40:53;3.20;;;1.70;;
44750;SDS011;30477;48.224;11.470;2024-03-23T09:43:19;2.90;;;2.00;;
44750;SDS011;30477;48.224;11.470;2024-03-23T09:45:44;6.30;;;2.10;;
44750;SDS011;30477;48.224;11.470;2024-03-23T09:48:11;2.42;;;1.80;;
44750;SDS011;30477;48.224;11.470;2024-03-23T09:50:40;1.85;;;1.48;;
44750;SDS011;30477;48.224;11.470;2024-03-23T09:53:09;2.20;;;2.00;;
44750;SDS011;30477;48.224;11.470;2024-03-23T09:55:36;2.90;;;1.48;;
44750;SDS011;30477;48.224;11.470;2024-03-23T09:58:02;1.25;;;0.93;;
44750;SDS011;30477;48.224;11.470;2024-03-23T10:00:29;1.70;;;1.17;;
44750;SDS011;30477;48.224;11.470;2024-03-23T10:02:55;1.50;;;1.10;;
44750;SDS011;30477;48.224;11.470;2024-03-23T10:05:23;1.63;;;1.40;;
44750;SDS011;30477;48.224;11.470;2024-03-23T10:07:52;1.15;;;0.80;;
44750;SDS011;30477;48.224;11.470;2024-03-23T10:10:17;5.35;;;1.00;;
44750;SDS011;30477;48.224;11.470;2024-03-23T10:12:46;2.15;;;1.20;;
44750;SDS011;30477;48.224;11.470;2024-03-23T10:15:23;2.22;;;1.65;;
44750;SDS011;30477;48.224;11.470;2024-03-23T10:20:22;1.50;;;1.17;;
44750;SDS011;30477;48.224;11.470;2024-03-23T10:22:48;1.92;;;1.10;;
44750;SDS011;30477;48.224;11.470;2024-03-23T10:25:15;3.60;;;1.20;;
44750;SDS011;30477;48.224;11.470;2024-03-23T10:27:40;2.83;;;1.47;;
44750;SDS011;30477;48.224;11.470;2024-03-23T10:32:34;2.55;;;2.10;;
44750;SDS011;30477;48.224;11.470;2024-03-23T10:35:18;1.60;;;1.30;;
44750;SDS011;30477;48.224;11.470;2024-03-23T10:37:46;1.55;;;1.25;;
44750;SDS011;30477;48.224;11.470;2024-03-23T10:40:14;1.77;;;1.50;;
44750;SDS011;30477;48.224;11.470;2024-03-23T10:42:44;1.80;;;1.38;;
44750;SDS011;30477;48.224;11.470;2024-03-23T10:45:09;1.80;;;1.38;;
44750;SDS011;30477;48.224;11.470;2024-03-23T10:47:36;1.88;;;1.23;;
44750;SDS011;30477;48.224;11.470;2024-03-23T10:50:05;1.20;;;1.10;;
44750;SDS011;30477;48.224;11.470;2024-03-23T10:52:32;1.90;;;1.35;;
44750;SDS011;30477;48.224;11.470;2024-03-23T10:54:58;1.85;;;1.30;;
44750;SDS011;30477;48.224;11.470;2024-03-23T10:57:29;2.47;;;1.30;;
44750;SDS011;30477;48.224;11.470;2024-03-23T11:00:04;1.88;;;1.15;;
44750;SDS011;30477;48.224;11.470;2024-03-23T11:02:33;1.15;;;0.73;;
44750;SDS011;30477;48.224;11.470;2024-03-23T11:04:58;1.30;;;1.10;;
44750;SDS011;30477;48.224;11.470;2024-03-23T11:09:49;1.33;;;1.10;;
44750;SDS011;30477;48.224;11.470;2024-03-23T11:14:44;1.17;;;1.02;;
44750;SDS011;30477;48.224;11.470;2024-03-23T11:17:10;1.73;;;1.20;;
44750;SDS011;30477;48.224;11.470;2024-03-23T11:19:36;1.87;;;1.00;;
44750;SDS011;30477;48.224;11.470;2024-03-23T11:24:28;3.47;;;1.40;;
44750;SDS011;30477;48.224;11.470;2024-03-23T11:26:54;1.27;;;1.10;;
44750;SDS011;30477;48.224;11.470;2024-03-23T11:29:19;2.07;;;1.27;;
44750;SDS011;30477;48.224;11.470;2024-03-23T11:31:48;2.17;;;1.50;;
44750;SDS011;30477;48.224;11.470;2024-03-23T11:34:18;1.25;;;1.10;;
44750;SDS011;30477;48.224;11.470;2024-03-23T11:36:47;2.67;;;1.23;;
44750;SDS011;30477;48.224;11.470;2024-03-23T11:39:19;1.23;;;1.10;;
44750;SDS011;30477;48.224;11.470;2024-03-23T11:44:20;3.20;;;1.40;;
44750;SDS011;30477;48.224;11.470;2024-03-23T11:46:47;3.85;;;1.70;;
44750;SDS011;30477;48.224;11.470;2024-03-23T11:49:23;1.63;;;1.40;;
44750;SDS011;30477;48.224;11.470;2024-03-23T11:51:52;3.70;;;1.73;;
44750;SDS011;30477;48.224;11.470;2024-03-23T11:54:26;2.80;;;1.30;;
44750;SDS011;30477;48.224;11.470;2024-03-23T11:57:01;1.98;;;1.40;;
44750;SDS011;30477;48.224;11.470;2024-03-23T11:59:36;3.92;;;1.90;;
44750;SDS011;30477;48.224;11.470;2024-03-23T12:02:09;3.05;;;1.80;;
44750;SDS011;30477;48.224;11.470;2024-03-23T12:04:36;3.65;;;1.83;;
44750;SDS011;30477;48.224;11.470;2024-03-23T12:10:04;2.55;;;1.80;;
44750;SDS011;30477;48.224;11.470;2024-03-23T12:12:33;3.70;;;1.88;;
44750;SDS011;30477;48.224;11.470;2024-03-23T12:15:06;3.35;;;1.88;;
44750;SDS011;30477;48.224;11.470;2024-03-23T12:17:33;3.80;;;2.05;;
44750;SDS011;30477;48.224;11.470;2024-03-23T12:19:59;3.88;;;2.05;;
44750;SDS011;30477;48.224;11.470;2024-03-23T12:22:25;4.00;;;1.80;;
44750;SDS011;30477;48.224;11.470;2024-03-23T12:24:51;3.33;;;1.73;;
44750;SDS011;30477;48.224;11.470;2024-03-23T12:27:17;2.42;;;1.70;;
44750;SDS011;30477;48.224;11.470;2024-03-23T12:29:42;3.77;;;1.80;;
44750;SDS011;30477;48.224;11.470;2024-03-23T12:32:10;4.88;;;2.40;;
44750;SDS011;30477;48.224;11.470;2024-03-23T12:34:36;3.00;;;2.05;;
44750;SDS011;30477;48.224;11.470;2024-03-23T12:37:02;4.47;;;2.77;;
44750;SDS011;30477;48.224;11.470;2024-03-23T12:39:27;6.00;;;2.57;;
44750;SDS011;30477;48.224;11.470;2024-03-23T12:41:53;2.73;;;1.80;;
44750;SDS011;30477;48.224;11.470;2024-03-23T12:44:18;4.43;;;2.30;;
44750;SDS011;30477;48.224;11.470;2024-03-23T12:46:44;4.30;;;2.10;;
44750;SDS011;30477;48.224;11.470;2024-03-23T12:49:10;4.10;;;2.05;;
44750;SDS011;30477;48.224;11.470;2024-03-23T12:51:36;4.85;;;2.83;;
44750;SDS011;30477;48.224;11.470;2024-03-23T12:54:01;4.57;;;2.40;;
44750;SDS011;30477;48.224;11.470;2024-03-23T12:56:27;3.27;;;2.30;;
44750;SDS011;30477;48.224;11.470;2024-03-23T12:58:56;4.20;;;2.40;;
44750;SDS011;30477;48.224;11.470;2024-03-23T13:03:50;4.95;;;2.33;;
44750;SDS011;30477;48.224;11.470;2024-03-23T13:06:18;9.65;;;2.75;;
44750;SDS011;30477;48.224;11.470;2024-03-23T13:08:45;6.18;;;2.55;;
44750;SDS011;30477;48.224;11.470;2024-03-23T13:11:10;4.72;;;2.83;;
44750;SDS011;30477;48.224;11.470;2024-03-23T13:13:37;4.28;;;2.40;;
44750;SDS011;30477;48.224;11.470;2024-03-23T13:16:03;4.07;;;2.30;;
44750;SDS011;30477;48.224;11.470;2024-03-23T13:18:29;7.60;;;3.10;;
44750;SDS011;30477;48.224;11.470;2024-03-23T13:20:55;4.97;;;2.33;;
44750;SDS011;30477;48.224;11.470;2024-03-23T13:23:20;3.63;;;2.60;;
44750;SDS011;30477;48.224;11.470;2024-03-23T13:25:52;5.13;;;2.63;;
44750;SDS011;30477;48.224;11.470;2024-03-23T13:28:19;4.50;;;2.50;;
44750;SDS011;30477;48.224;11.470;2024-03-23T13:30:54;8.52;;;2.85;;
44750;SDS011;30477;48.224;11.470;2024-03-23T13:33:21;5.50;;;3.10;;
44750;SDS011;30477;48.224;11.470;2024-03-23T13:38:16;7.10;;;2.97;;
44750;SDS011;30477;48.224;11.470;2024-03-23T13:40:49;5.93;;;2.53;;
44750;SDS011;30477;48.224;11.470;2024-03-23T13:43:18;4.10;;;2.35;;
44750;SDS011;30477;48.224;11.470;2024-03-23T13:45:43;8.30;;;3.20;;
44750;SDS011;30477;48.224;11.470;2024-03-23T13:48:09;5.87;;;3.33;;
44750;SDS011;30477;48.224;11.470;2024-03-23T13:50:34;8.55;;;4.20;;
44750;SDS011;30477;48.224;11.470;2024-03-23T13:53:00;7.47;;;3.27;;
44750;SDS011;30477;48.224;11.470;2024-03-23T13:55:25;5.40;;;3.47;;
44750;SDS011;30477;48.224;11.470;2024-03-23T13:57:50;8.53;;;3.77;;
44750;SDS011;30477;48.224;11.470;2024-03-23T14:00:16;5.90;;;3.53;;
44750;SDS011;30477;48.224;11.470;2024-03-23T14:02:43;8.63;;;3.80;;
44750;SDS011;30477;48.224;11.470;2024-03-23T14:05:08;6.97;;;3.73;;
44750;SDS011;30477;48.224;11.470;2024-03-23T14:07:34;6.40;;;3.43;;
44750;SDS011;30477;48.224;11.470;2024-03-23T14:10:02;7.53;;;4.27;;
44750;SDS011;30477;48.224;11.470;2024-03-23T14:12:35;8.18;;;3.80;;
44750;SDS011;30477;48.224;11.470;2024-03-23T14:15:01;11.73;;;3.88;;
44750;SDS011;30477;48.224;11.470;2024-03-23T14:19:53;4.82;;;2.60;;
44750;SDS011;30477;48.224;11.470;2024-03-23T14:22:18;7.00;;;2.47;;
44750;SDS011;30477;48.224;11.470;2024-03-23T14:24:46;7.22;;;2.50;;
44750;SDS011;30477;48.224;11.470;2024-03-23T14:27:11;3.47;;;1.97;;
44750;SDS011;30477;48.224;11.470;2024-03-23T14:29:37;6.00;;;2.10;;
44750;SDS011;30477;48.224;11.470;2024-03-23T14:32:02;4.00;;;1.87;;
44750;SDS011;30477;48.224;11.470;2024-03-23T14:34:28;4.07;;;2.03;;
44750;SDS011;30477;48.224;11.470;2024-03-23T14:36:53;4.97;;;1.93;;
44750;SDS011;30477;48.224;11.470;2024-03-23T14:39:22;5.25;;;1.80;;
44750;SDS011;30477;48.224;11.470;2024-03-23T14:41:49;4.88;;;2.00;;
44750;SDS011;30477;48.224;11.470;2024-03-23T14:44:15;5.38;;;1.90;;
44750;SDS011;30477;48.224;11.470;2024-03-23T14:46:40;4.57;;;1.90;;
44750;SDS011;30477;48.224;11.470;2024-03-23T14:49:06;5.20;;;2.10;;
44750;SDS011;30477;48.224;11.470;2024-03-23T14:51:31;6.57;;;2.30;;
44750;SDS011;30477;48.224;11.470;2024-03-23T14:53:58;6.22;;;1.85;;
44750;SDS011;30477;48.224;11.470;2024-03-23T14:56:23;5.30;;;1.80;;
44750;SDS011;30477;48.224;11.470;2024-03-23T14:58:52;5.20;;;2.17;;
44750;SDS011;30477;48.224;11.470;2024-03-23T15:01:17;4.88;;;2.45;;
44750;SDS011;30477;48.224;11.470;2024-03-23T15:03:44;3.22;;;1.80;;
44750;SDS011;30477;48.224;11.470;2024-03-23T15:06:09;4.57;;;2.03;;
44750;SDS011;30477;48.224;11.470;2024-03-23T15:08:35;4.93;;;1.73;;
44750;SDS011;30477;48.224;11.470;2024-03-23T15:11:01;4.57;;;1.92;;
44750;SDS011;30477;48.224;11.470;2024-03-23T15:13:31;5.00;;;1.70;;
44750;SDS011;30477;48.224;11.470;2024-03-23T15:16:00;6.75;;;1.83;;
44750;SDS011;30477;48.224;11.470;2024-03-23T15:18:25;6.40;;;2.80;;
44750;SDS011;30477;48.224;11.470;2024-03-23T15:20:51;5.67;;;2.60;;
44750;SDS011;30477;48.224;11.470;2024-03-23T15:23:20;3.78;;;2.20;;
44750;SDS011;30477;48.224;11.470;2024-03-23T15:25:53;7.70;;;3.95;;
44750;SDS011;30477;48.224;11.470;2024-03-23T15:28:22;4.97;;;1.88;;
44750;SDS011;30477;48.224;11.470;2024-03-23T15:30:48;6.55;;;3.28;;
44750;SDS011;30477;48.224;11.470;2024-03-23T15:33:13;5.50;;;2.33;;
44750;SDS011;30477;48.224;11.470;2024-03-23T15:35:39;5.27;;;2.70;;
44750;SDS011;30477;48.224;11.470;2024-03-23T15:38:04;4.33;;;2.40;;
44750;SDS011;30477;48.224;11.470;2024-03-23T15:40:29;5.53;;;2.17;;
44750;SDS011;30477;48.224;11.470;2024-03-23T15:42:55;8.27;;;2.50;;
44750;SDS011;30477;48.224;11.470;2024-03-23T15:45:20;4.90;;;2.20;;
44750;SDS011;30477;48.224;11.470;2024-03-23T15:47:45;4.57;;;2.10;;
44750;SDS011;30477;48.224;11.470;2024-03-23T15:50:11;6.20;;;2.20;;
44750;SDS011;30477;48.224;11.470;2024-03-23T15:52:37;5.75;;;2.17;;
44750;SDS011;30477;48.224;11.470;2024-03-23T15:55:05;5.43;;;2.30;;
44750;SDS011;30477;48.224;11.470;2024-03-23T15:57:32;4.20;;;2.33;;
44750;SDS011;30477;48.224;11.470;2024-03-23T15:59:58;4.75;;;2.13;;